sensor_id;sensor_type;location;lat;lon;timestamp;P1;durP1;ratioP1;P2;durP2;ratioP2
58109;SDS011;58943;50.168;4.410;2023-11-21T00:00:43;2.30;;;1.00;;
58109;SDS011;58943;50.168;4.410;2023-11-21T00:03:11;1.33;;;1.02;;
58109;SDS011;58943;50.168;4.410;2023-11-21T00:05:43;1.48;;;1.15;;
58109;SDS011;58943;50.168;4.410;2023-11-21T00:08:09;1.23;;;1.00;;
58109;SDS011;58943;50.168;4.410;2023-11-21T00:10:35;3.30;;;1.00;;
58109;SDS011;58943;50.168;4.410;2023-11-21T00:13:03;1.40;;;1.00;;
58109;SDS011;58943;50.168;4.410;2023-11-21T00:15:30;1.67;;;1.20;;
58109;SDS011;58943;50.168;4.410;2023-11-21T00:17:56;3.58;;;1.35;;
58109;SDS011;58943;50.168;4.410;2023-11-21T00:20:22;1.60;;;1.30;;
58109;SDS011;58943;50.168;4.410;2023-11-21T00:22:49;1.48;;;1.08;;
58109;SDS011;58943;50.168;4.410;2023-11-21T00:25:15;2.08;;;1.08;;
58109;SDS011;58943;50.168;4.410;2023-11-21T00:27:42;1.45;;;1.10;;
58109;SDS011;58943;50.168;4.410;2023-11-21T00:30:09;2.10;;;1.13;;
58109;SDS011;58943;50.168;4.410;2023-11-21T00:32:36;2.00;;;1.02;;
58109;SDS011;58943;50.168;4.410;2023-11-21T00:35:03;2.25;;;1.38;;
58109;SDS011;58943;50.168;4.410;2023-11-21T00:37:29;3.25;;;1.35;;
58109;SDS011;58943;50.168;4.410;2023-11-21T00:39:57;1.33;;;1.10;;
58109;SDS011;58943;50.168;4.410;2023-11-21T00:42:24;2.15;;;1.15;;
58109;SDS011;58943;50.168;4.410;2023-11-21T00:44:50;2.47;;;1.40;;
58109;SDS011;58943;50.168;4.410;2023-11-21T00:47:16;1.38;;;1.27;;
58109;SDS011;58943;50.168;4.410;2023-11-21T00:49:42;1.80;;;1.20;;
58109;SDS011;58943;50.168;4.410;2023-11-21T00:52:09;1.80;;;1.27;;
58109;SDS011;58943;50.168;4.410;2023-11-21T00:54:35;1.15;;;1.05;;
58109;SDS011;58943;50.168;4.410;2023-11-21T00:57:01;1.83;;;1.10;;
58109;SDS011;58943;50.168;4.410;2023-11-21T00:59:28;2.60;;;1.20;;
58109;SDS011;58943;50.168;4.410;2023-11-21T01:01:55;1.73;;;1.10;;
58109;SDS011;58943;50.168;4.410;2023-11-21T01:04:21;1.50;;;1.20;;
58109;SDS011;58943;50.168;4.410;2023-11-21T01:06:48;1.75;;;1.13;;
58109;SDS011;58943;50.168;4.410;2023-11-21T01:09:15;1.42;;;1.20;;
58109;SDS011;58943;50.168;4.410;2023-11-21T01:11:43;2.63;;;1.20;;
58109;SDS011;58943;50.168;4.410;2023-11-21T01:14:10;1.65;;;1.30;;
58109;SDS011;58943;50.168;4.410;2023-11-21T01:16:38;1.88;;;1.30;;
58109;SDS011;58943;50.168;4.410;2023-11-21T01:19:04;3.38;;;1.20;;
58109;SDS011;58943;50.168;4.410;2023-11-21T01:21:31;1.83;;;1.20;;
58109;SDS011;58943;50.168;4.410;2023-11-21T01:23:59;2.10;;;1.13;;
58109;SDS011;58943;50.168;4.410;2023-11-21T01:26:25;2.78;;;1.25;;
58109;SDS011;58943;50.168;4.410;2023-11-21T01:28:51;1.83;;;1.42;;
58109;SDS011;58943;50.168;4.410;2023-11-21T01:31:17;1.80;;;1.27;;
58109;SDS011;58943;50.168;4.410;2023-11-21T01:33:44;2.13;;;1.40;;
58109;SDS011;58943;50.168;4.410;2023-11-21T01:36:10;1.58;;;1.40;;
58109;SDS011;58943;50.168;4.410;2023-11-21T01:38:37;1.88;;;1.50;;
58109;SDS011;58943;50.168;4.410;2023-11-21T01:41:03;1.75;;;1.27;;
58109;SDS011;58943;50.168;4.410;2023-11-21T01:43:30;1.70;;;1.20;;
58109;SDS011;58943;50.168;4.410;2023-11-21T01:45:57;2.00;;;1.40;;
58109;SDS011;58943;50.168;4.410;2023-11-21T01:48:24;2.25;;;1.30;;
58109;SDS011;58943;50.168;4.410;2023-11-21T01:50:51;1.65;;;1.13;;
58109;SDS011;58943;50.168;4.410;2023-11-21T01:53:17;1.73;;;1.15;;
58109;SDS011;58943;50.168;4.410;2023-11-21T01:55:43;2.17;;;1.30;;
58109;SDS011;58943;50.168;4.410;2023-11-21T01:58:11;1.83;;;1.27;;
58109;SDS011;58943;50.168;4.410;2023-11-21T02:00:37;2.05;;;1.17;;
58109;SDS011;58943;50.168;4.410;2023-11-21T02:03:04;2.92;;;1.63;;
58109;SDS011;58943;50.168;4.410;2023-11-21T02:05:32;2.47;;;1.50;;
58109;SDS011;58943;50.168;4.410;2023-11-21T02:07:58;2.58;;;1.30;;
58109;SDS011;58943;50.168;4.410;2023-11-21T02:10:25;1.58;;;1.20;;
58109;SDS011;58943;50.168;4.410;2023-11-21T02:12:52;2.25;;;1.35;;
58109;SDS011;58943;50.168;4.410;2023-11-21T02:15:18;1.52;;;1.33;;
58109;SDS011;58943;50.168;4.410;2023-11-21T02:17:52;2.20;;;1.35;;
58109;SDS011;58943;50.168;4.410;2023-11-21T02:20:19;1.60;;;1.35;;
58109;SDS011;58943;50.168;4.410;2023-11-21T02:22:51;1.92;;;1.48;;
58109;SDS011;58943;50.168;4.410;2023-11-21T02:25:27;2.13;;;1.75;;
58109;SDS011;58943;50.168;4.410;2023-11-21T02:27:54;1.52;;;1.35;;
58109;SDS011;58943;50.168;4.410;2023-11-21T02:30:23;1.65;;;1.30;;
58109;SDS011;58943;50.168;4.410;2023-11-21T02:33:00;1.67;;;1.15;;
58109;SDS011;58943;50.168;4.410;2023-11-21T02:35:26;2.00;;;1.45;;
58109;SDS011;58943;50.168;4.410;2023-11-21T02:37:53;1.70;;;1.30;;
58109;SDS011;58943;50.168;4.410;2023-11-21T02:40:19;1.88;;;1.30;;
58109;SDS011;58943;50.168;4.410;2023-11-21T02:42:46;2.05;;;1.35;;
58109;SDS011;58943;50.168;4.410;2023-11-21T02:45:13;2.03;;;1.38;;
58109;SDS011;58943;50.168;4.410;2023-11-21T02:47:42;3.33;;;1.30;;
58109;SDS011;58943;50.168;4.410;2023-11-21T02:50:08;1.85;;;1.70;;
58109;SDS011;58943;50.168;4.410;2023-11-21T02:52:35;2.25;;;1.45;;
58109;SDS011;58943;50.168;4.410;2023-11-21T02:55:09;1.50;;;1.40;;
58109;SDS011;58943;50.168;4.410;2023-11-21T02:57:35;2.00;;;1.50;;
58109;SDS011;58943;50.168;4.410;2023-11-21T03:00:01;2.00;;;1.38;;
58109;SDS011;58943;50.168;4.410;2023-11-21T03:02:28;2.95;;;1.70;;
58109;SDS011;58943;50.168;4.410;2023-11-21T03:04:54;1.60;;;1.50;;
58109;SDS011;58943;50.168;4.410;2023-11-21T03:07:20;1.60;;;1.40;;
58109;SDS011;58943;50.168;4.410;2023-11-21T03:09:47;2.17;;;1.60;;
58109;SDS011;58943;50.168;4.410;2023-11-21T03:12:13;2.15;;;1.52;;
58109;SDS011;58943;50.168;4.410;2023-11-21T03:14:40;1.98;;;1.50;;
58109;SDS011;58943;50.168;4.410;2023-11-21T03:17:06;1.90;;;1.48;;
58109;SDS011;58943;50.168;4.410;2023-11-21T03:19:32;2.13;;;1.63;;
58109;SDS011;58943;50.168;4.410;2023-11-21T03:21:58;2.00;;;1.70;;
58109;SDS011;58943;50.168;4.410;2023-11-21T03:24:25;2.55;;;1.70;;
58109;SDS011;58943;50.168;4.410;2023-11-21T03:26:51;2.17;;;1.65;;
58109;SDS011;58943;50.168;4.410;2023-11-21T03:29:18;2.03;;;1.83;;
58109;SDS011;58943;50.168;4.410;2023-11-21T03:31:44;3.40;;;1.80;;
58109;SDS011;58943;50.168;4.410;2023-11-21T03:34:14;1.95;;;1.70;;
58109;SDS011;58943;50.168;4.410;2023-11-21T03:36:41;2.05;;;1.65;;
58109;SDS011;58943;50.168;4.410;2023-11-21T03:39:08;4.32;;;2.15;;
58109;SDS011;58943;50.168;4.410;2023-11-21T03:41:34;3.28;;;1.80;;
58109;SDS011;58943;50.168;4.410;2023-11-21T03:44:00;2.90;;;1.70;;
58109;SDS011;58943;50.168;4.410;2023-11-21T03:46:27;2.65;;;1.52;;
58109;SDS011;58943;50.168;4.410;2023-11-21T03:48:53;2.70;;;1.90;;
58109;SDS011;58943;50.168;4.410;2023-11-21T03:51:20;2.60;;;1.60;;
58109;SDS011;58943;50.168;4.410;2023-11-21T03:53:47;2.47;;;1.98;;
58109;SDS011;58943;50.168;4.410;2023-11-21T03:56:13;1.42;;;1.33;;
58109;SDS011;58943;50.168;4.410;2023-11-21T03:58:40;2.80;;;1.75;;
58109;SDS011;58943;50.168;4.410;2023-11-21T04:01:06;2.03;;;1.70;;
58109;SDS011;58943;50.168;4.410;2023-11-21T04:03:32;1.67;;;1.30;;
58109;SDS011;58943;50.168;4.410;2023-11-21T04:05:58;2.17;;;1.42;;
58109;SDS011;58943;50.168;4.410;2023-11-21T04:08:26;1.70;;;1.40;;
58109;SDS011;58943;50.168;4.410;2023-11-21T04:10:52;2.78;;;1.70;;
58109;SDS011;58943;50.168;4.410;2023-11-21T04:13:18;2.40;;;1.50;;
58109;SDS011;58943;50.168;4.410;2023-11-21T04:15:44;2.50;;;1.27;;
58109;SDS011;58943;50.168;4.410;2023-11-21T04:18:11;2.42;;;1.48;;
58109;SDS011;58943;50.168;4.410;2023-11-21T04:20:37;2.28;;;1.58;;
58109;SDS011;58943;50.168;4.410;2023-11-21T04:23:03;2.20;;;1.60;;
58109;SDS011;58943;50.168;4.410;2023-11-21T04:25:30;2.28;;;1.80;;
58109;SDS011;58943;50.168;4.410;2023-11-21T04:27:56;1.90;;;1.45;;
58109;SDS011;58943;50.168;4.410;2023-11-21T04:30:22;2.33;;;1.50;;
58109;SDS011;58943;50.168;4.410;2023-11-21T04:32:48;2.38;;;1.67;;
58109;SDS011;58943;50.168;4.410;2023-11-21T04:35:16;1.55;;;1.45;;
58109;SDS011;58943;50.168;4.410;2023-11-21T04:37:42;2.08;;;1.65;;
58109;SDS011;58943;50.168;4.410;2023-11-21T04:40:08;2.75;;;1.63;;
58109;SDS011;58943;50.168;4.410;2023-11-21T04:42:35;1.83;;;1.30;;
58109;SDS011;58943;50.168;4.410;2023-11-21T04:45:03;2.10;;;1.80;;
58109;SDS011;58943;50.168;4.410;2023-11-21T04:47:33;1.70;;;1.60;;
58109;SDS011;58943;50.168;4.410;2023-11-21T04:50:00;1.70;;;1.60;;
58109;SDS011;58943;50.168;4.410;2023-11-21T04:52:26;2.28;;;1.67;;
58109;SDS011;58943;50.168;4.410;2023-11-21T04:54:52;2.20;;;1.90;;
58109;SDS011;58943;50.168;4.410;2023-11-21T04:57:20;2.50;;;1.50;;
58109;SDS011;58943;50.168;4.410;2023-11-21T04:59:48;2.83;;;1.67;;
58109;SDS011;58943;50.168;4.410;2023-11-21T05:02:14;1.50;;;1.40;;
58109;SDS011;58943;50.168;4.410;2023-11-21T05:04:40;2.60;;;1.80;;
58109;SDS011;58943;50.168;4.410;2023-11-21T05:07:08;2.15;;;1.67;;
58109;SDS011;58943;50.168;4.410;2023-11-21T05:09:34;3.75;;;1.70;;
58109;SDS011;58943;50.168;4.410;2023-11-21T05:12:01;1.80;;;1.60;;
58109;SDS011;58943;50.168;4.410;2023-11-21T05:14:27;2.85;;;1.92;;
58109;SDS011;58943;50.168;4.410;2023-11-21T05:16:54;1.85;;;1.75;;
58109;SDS011;58943;50.168;4.410;2023-11-21T05:19:20;2.45;;;1.92;;
58109;SDS011;58943;50.168;4.410;2023-11-21T05:21:47;1.52;;;1.42;;
58109;SDS011;58943;50.168;4.410;2023-11-21T05:24:13;1.98;;;1.40;;
58109;SDS011;58943;50.168;4.410;2023-11-21T05:26:39;2.00;;;1.80;;
58109;SDS011;58943;50.168;4.410;2023-11-21T05:29:05;2.65;;;2.00;;
58109;SDS011;58943;50.168;4.410;2023-11-21T05:31:31;2.55;;;1.73;;
58109;SDS011;58943;50.168;4.410;2023-11-21T05:33:58;1.88;;;1.65;;
58109;SDS011;58943;50.168;4.410;2023-11-21T05:36:24;2.47;;;1.75;;
58109;SDS011;58943;50.168;4.410;2023-11-21T05:38:50;1.83;;;1.52;;
58109;SDS011;58943;50.168;4.410;2023-11-21T05:41:16;2.05;;;1.70;;
58109;SDS011;58943;50.168;4.410;2023-11-21T05:43:43;1.60;;;1.50;;
58109;SDS011;58943;50.168;4.410;2023-11-21T05:46:09;1.60;;;1.50;;
58109;SDS011;58943;50.168;4.410;2023-11-21T05:48:35;2.30;;;1.73;;
58109;SDS011;58943;50.168;4.410;2023-11-21T05:51:06;2.05;;;1.60;;
58109;SDS011;58943;50.168;4.410;2023-11-21T05:53:33;2.60;;;1.67;;
58109;SDS011;58943;50.168;4.410;2023-11-21T05:56:00;2.65;;;1.55;;
58109;SDS011;58943;50.168;4.410;2023-11-21T05:58:26;3.47;;;1.77;;
58109;SDS011;58943;50.168;4.410;2023-11-21T06:00:52;2.22;;;1.70;;
58109;SDS011;58943;50.168;4.410;2023-11-21T06:03:18;1.75;;;1.55;;
58109;SDS011;58943;50.168;4.410;2023-11-21T06:05:44;2.05;;;1.55;;
58109;SDS011;58943;50.168;4.410;2023-11-21T06:08:11;2.33;;;1.67;;
58109;SDS011;58943;50.168;4.410;2023-11-21T06:10:37;1.88;;;1.60;;
58109;SDS011;58943;50.168;4.410;2023-11-21T06:13:04;2.33;;;1.60;;
58109;SDS011;58943;50.168;4.410;2023-11-21T06:15:32;2.53;;;1.88;;
58109;SDS011;58943;50.168;4.410;2023-11-21T06:17:58;2.47;;;1.90;;
58109;SDS011;58943;50.168;4.410;2023-11-21T06:20:25;1.98;;;1.75;;
58109;SDS011;58943;50.168;4.410;2023-11-21T06:22:51;2.28;;;1.55;;
58109;SDS011;58943;50.168;4.410;2023-11-21T06:25:17;2.22;;;1.67;;
58109;SDS011;58943;50.168;4.410;2023-11-21T06:27:44;2.03;;;1.70;;
58109;SDS011;58943;50.168;4.410;2023-11-21T06:30:11;2.28;;;1.85;;
58109;SDS011;58943;50.168;4.410;2023-11-21T06:32:39;2.35;;;1.63;;
58109;SDS011;58943;50.168;4.410;2023-11-21T06:35:05;2.72;;;1.75;;
58109;SDS011;58943;50.168;4.410;2023-11-21T06:37:32;3.47;;;1.75;;
58109;SDS011;58943;50.168;4.410;2023-11-21T06:39:59;2.22;;;1.60;;
58109;SDS011;58943;50.168;4.410;2023-11-21T06:42:25;2.13;;;1.60;;
58109;SDS011;58943;50.168;4.410;2023-11-21T06:44:52;2.00;;;1.50;;
58109;SDS011;58943;50.168;4.410;2023-11-21T06:47:19;1.60;;;1.40;;
58109;SDS011;58943;50.168;4.410;2023-11-21T06:49:46;1.88;;;1.65;;
58109;SDS011;58943;50.168;4.410;2023-11-21T06:52:13;1.45;;;1.35;;
58109;SDS011;58943;50.168;4.410;2023-11-21T06:54:39;2.35;;;1.63;;
58109;SDS011;58943;50.168;4.410;2023-11-21T06:57:06;2.13;;;1.40;;
58109;SDS011;58943;50.168;4.410;2023-11-21T06:59:32;2.55;;;1.58;;
58109;SDS011;58943;50.168;4.410;2023-11-21T07:01:59;1.60;;;1.30;;
58109;SDS011;58943;50.168;4.410;2023-11-21T07:04:25;1.50;;;1.40;;
58109;SDS011;58943;50.168;4.410;2023-11-21T07:06:53;2.28;;;1.50;;
58109;SDS011;58943;50.168;4.410;2023-11-21T07:09:19;1.60;;;1.30;;
58109;SDS011;58943;50.168;4.410;2023-11-21T07:11:47;1.88;;;1.40;;
58109;SDS011;58943;50.168;4.410;2023-11-21T07:14:14;2.10;;;1.48;;
58109;SDS011;58943;50.168;4.410;2023-11-21T07:16:42;2.63;;;1.40;;
58109;SDS011;58943;50.168;4.410;2023-11-21T07:19:08;1.90;;;1.40;;
58109;SDS011;58943;50.168;4.410;2023-11-21T07:21:35;2.10;;;1.48;;
58109;SDS011;58943;50.168;4.410;2023-11-21T07:24:02;2.00;;;1.30;;
58109;SDS011;58943;50.168;4.410;2023-11-21T07:26:29;1.80;;;1.40;;
58109;SDS011;58943;50.168;4.410;2023-11-21T07:28:56;2.00;;;1.48;;
58109;SDS011;58943;50.168;4.410;2023-11-21T07:31:22;2.13;;;1.25;;
58109;SDS011;58943;50.168;4.410;2023-11-21T07:33:51;1.88;;;1.40;;
58109;SDS011;58943;50.168;4.410;2023-11-21T07:36:19;2.67;;;1.33;;
58109;SDS011;58943;50.168;4.410;2023-11-21T07:38:49;1.63;;;1.30;;
58109;SDS011;58943;50.168;4.410;2023-11-21T07:41:16;8.65;;;3.20;;
58109;SDS011;58943;50.168;4.410;2023-11-21T07:43:43;5.40;;;1.70;;
58109;SDS011;58943;50.168;4.410;2023-11-21T07:46:10;2.63;;;1.85;;
58109;SDS011;58943;50.168;4.410;2023-11-21T07:48:38;3.15;;;1.60;;
58109;SDS011;58943;50.168;4.410;2023-11-21T07:51:04;2.40;;;1.60;;
58109;SDS011;58943;50.168;4.410;2023-11-21T07:53:32;1.60;;;1.50;;
58109;SDS011;58943;50.168;4.410;2023-11-21T07:55:59;1.67;;;1.58;;
58109;SDS011;58943;50.168;4.410;2023-11-21T07:58:28;3.67;;;1.70;;
58109;SDS011;58943;50.168;4.410;2023-11-21T08:00:56;2.25;;;1.35;;
58109;SDS011;58943;50.168;4.410;2023-11-21T08:03:22;6.10;;;1.70;;
58109;SDS011;58943;50.168;4.410;2023-11-21T08:05:49;2.55;;;1.35;;
58109;SDS011;58943;50.168;4.410;2023-11-21T08:08:15;4.40;;;1.90;;
58109;SDS011;58943;50.168;4.410;2023-11-21T08:10:45;4.05;;;1.60;;
58109;SDS011;58943;50.168;4.410;2023-11-21T08:13:25;3.97;;;1.83;;
58109;SDS011;58943;50.168;4.410;2023-11-21T08:15:55;2.38;;;1.58;;
58109;SDS011;58943;50.168;4.410;2023-11-21T08:18:27;1.60;;;1.30;;
58109;SDS011;58943;50.168;4.410;2023-11-21T08:20:55;2.45;;;1.50;;
58109;SDS011;58943;50.168;4.410;2023-11-21T08:23:21;2.00;;;1.52;;
58109;SDS011;58943;50.168;4.410;2023-11-21T08:25:55;2.35;;;1.35;;
58109;SDS011;58943;50.168;4.410;2023-11-21T08:28:21;4.38;;;1.40;;
58109;SDS011;58943;50.168;4.410;2023-11-21T08:30:52;2.85;;;1.70;;
58109;SDS011;58943;50.168;4.410;2023-11-21T08:33:20;2.30;;;1.47;;
58109;SDS011;58943;50.168;4.410;2023-11-21T08:35:48;2.70;;;1.70;;
58109;SDS011;58943;50.168;4.410;2023-11-21T08:38:15;2.78;;;1.67;;
58109;SDS011;58943;50.168;4.410;2023-11-21T08:40:43;3.28;;;1.65;;
58109;SDS011;58943;50.168;4.410;2023-11-21T08:43:10;2.10;;;1.30;;
58109;SDS011;58943;50.168;4.410;2023-11-21T08:45:37;1.92;;;1.45;;
58109;SDS011;58943;50.168;4.410;2023-11-21T08:48:04;2.13;;;1.42;;
58109;SDS011;58943;50.168;4.410;2023-11-21T08:50:30;3.88;;;1.65;;
58109;SDS011;58943;50.168;4.410;2023-11-21T08:52:57;2.53;;;1.58;;
58109;SDS011;58943;50.168;4.410;2023-11-21T08:55:23;1.73;;;1.40;;
58109;SDS011;58943;50.168;4.410;2023-11-21T08:57:50;2.00;;;1.40;;
58109;SDS011;58943;50.168;4.410;2023-11-21T09:00:16;2.47;;;1.23;;
58109;SDS011;58943;50.168;4.410;2023-11-21T09:02:44;2.25;;;1.40;;
58109;SDS011;58943;50.168;4.410;2023-11-21T09:05:12;1.60;;;1.27;;
58109;SDS011;58943;50.168;4.410;2023-11-21T09:07:39;2.25;;;1.67;;
58109;SDS011;58943;50.168;4.410;2023-11-21T09:10:13;1.88;;;1.50;;
58109;SDS011;58943;50.168;4.410;2023-11-21T09:12:40;2.03;;;1.40;;
58109;SDS011;58943;50.168;4.410;2023-11-21T09:15:08;2.55;;;1.40;;
58109;SDS011;58943;50.168;4.410;2023-11-21T09:17:39;3.10;;;1.55;;
58109;SDS011;58943;50.168;4.410;2023-11-21T09:20:07;1.73;;;1.33;;
58109;SDS011;58943;50.168;4.410;2023-11-21T09:22:36;2.15;;;1.20;;
58109;SDS011;58943;50.168;4.410;2023-11-21T09:25:03;1.83;;;1.27;;
58109;SDS011;58943;50.168;4.410;2023-11-21T09:27:34;1.45;;;1.33;;
58109;SDS011;58943;50.168;4.410;2023-11-21T09:30:01;1.48;;;1.30;;
58109;SDS011;58943;50.168;4.410;2023-11-21T09:32:31;2.40;;;1.50;;
58109;SDS011;58943;50.168;4.410;2023-11-21T09:34:59;2.03;;;1.63;;
58109;SDS011;58943;50.168;4.410;2023-11-21T09:37:27;1.67;;;1.50;;
58109;SDS011;58943;50.168;4.410;2023-11-21T09:39:56;1.88;;;1.33;;
58109;SDS011;58943;50.168;4.410;2023-11-21T09:42:45;1.55;;;1.40;;
58109;SDS011;58943;50.168;4.410;2023-11-21T09:45:17;3.20;;;1.55;;
58109;SDS011;58943;50.168;4.410;2023-11-21T09:47:55;2.00;;;1.40;;
58109;SDS011;58943;50.168;4.410;2023-11-21T09:50:23;3.53;;;1.92;;
58109;SDS011;58943;50.168;4.410;2023-11-21T09:55:30;3.28;;;1.80;;
58109;SDS011;58943;50.168;4.410;2023-11-21T09:58:02;3.05;;;1.40;;
58109;SDS011;58943;50.168;4.410;2023-11-21T10:00:29;1.92;;;1.48;;
58109;SDS011;58943;50.168;4.410;2023-11-21T10:03:00;2.22;;;1.50;;
58109;SDS011;58943;50.168;4.410;2023-11-21T10:05:27;2.90;;;1.60;;
58109;SDS011;58943;50.168;4.410;2023-11-21T10:07:54;1.85;;;1.60;;
58109;SDS011;58943;50.168;4.410;2023-11-21T10:12:51;5.00;;;1.95;;
58109;SDS011;58943;50.168;4.410;2023-11-21T10:15:21;6.05;;;2.05;;
58109;SDS011;58943;50.168;4.410;2023-11-21T10:17:48;6.35;;;1.90;;
58109;SDS011;58943;50.168;4.410;2023-11-21T10:20:15;4.63;;;1.92;;
58109;SDS011;58943;50.168;4.410;2023-11-21T10:22:43;6.55;;;1.90;;
58109;SDS011;58943;50.168;4.410;2023-11-21T10:25:10;3.65;;;1.85;;
58109;SDS011;58943;50.168;4.410;2023-11-21T10:27:37;4.45;;;2.20;;
58109;SDS011;58943;50.168;4.410;2023-11-21T10:30:05;6.97;;;2.70;;
58109;SDS011;58943;50.168;4.410;2023-11-21T10:32:32;5.28;;;2.83;;
58109;SDS011;58943;50.168;4.410;2023-11-21T10:34:59;4.72;;;2.80;;
58109;SDS011;58943;50.168;4.410;2023-11-21T10:37:28;3.20;;;2.60;;
58109;SDS011;58943;50.168;4.410;2023-11-21T10:40:01;6.15;;;2.65;;
58109;SDS011;58943;50.168;4.410;2023-11-21T10:42:27;7.15;;;2.72;;
58109;SDS011;58943;50.168;4.410;2023-11-21T10:44:54;3.80;;;2.33;;
58109;SDS011;58943;50.168;4.410;2023-11-21T10:47:24;5.18;;;2.80;;
58109;SDS011;58943;50.168;4.410;2023-11-21T10:49:51;4.22;;;2.60;;
58109;SDS011;58943;50.168;4.410;2023-11-21T10:52:21;4.97;;;2.83;;
58109;SDS011;58943;50.168;4.410;2023-11-21T10:54:48;7.40;;;3.30;;
58109;SDS011;58943;50.168;4.410;2023-11-21T10:57:17;6.90;;;3.00;;
58109;SDS011;58943;50.168;4.410;2023-11-21T10:59:47;4.63;;;2.70;;
58109;SDS011;58943;50.168;4.410;2023-11-21T11:02:24;5.25;;;2.90;;
58109;SDS011;58943;50.168;4.410;2023-11-21T11:04:53;5.47;;;2.80;;
58109;SDS011;58943;50.168;4.410;2023-11-21T11:07:27;9.10;;;3.33;;
58109;SDS011;58943;50.168;4.410;2023-11-21T11:09:58;5.63;;;2.78;;
58109;SDS011;58943;50.168;4.410;2023-11-21T11:12:49;4.75;;;2.70;;
58109;SDS011;58943;50.168;4.410;2023-11-21T11:15:22;4.50;;;2.90;;
58109;SDS011;58943;50.168;4.410;2023-11-21T11:17:50;4.78;;;2.60;;
58109;SDS011;58943;50.168;4.410;2023-11-21T11:20:17;4.85;;;2.88;;
58109;SDS011;58943;50.168;4.410;2023-11-21T11:25:35;8.20;;;3.25;;
58109;SDS011;58943;50.168;4.410;2023-11-21T11:28:27;5.05;;;2.95;;
58109;SDS011;58943;50.168;4.410;2023-11-21T11:31:10;6.50;;;2.97;;
58109;SDS011;58943;50.168;4.410;2023-11-21T11:36:39;5.85;;;2.90;;
58109;SDS011;58943;50.168;4.410;2023-11-21T11:41:56;5.15;;;2.45;;
58109;SDS011;58943;50.168;4.410;2023-11-21T11:45:09;9.68;;;2.78;;
58109;SDS011;58943;50.168;4.410;2023-11-21T11:47:21;7.32;;;3.05;;
58109;SDS011;58943;50.168;4.410;2023-11-21T11:50:04;7.30;;;2.92;;
58109;SDS011;58943;50.168;4.410;2023-11-21T11:52:52;6.88;;;2.60;;
58109;SDS011;58943;50.168;4.410;2023-11-21T11:55:33;9.43;;;3.00;;
58109;SDS011;58943;50.168;4.410;2023-11-21T11:58:36;11.18;;;3.30;;
58109;SDS011;58943;50.168;4.410;2023-11-21T12:01:08;5.82;;;2.92;;
58109;SDS011;58943;50.168;4.410;2023-11-21T12:03:38;13.35;;;2.83;;
58109;SDS011;58943;50.168;4.410;2023-11-21T12:06:18;11.15;;;3.55;;
58109;SDS011;58943;50.168;4.410;2023-11-21T12:09:00;5.90;;;3.17;;
58109;SDS011;58943;50.168;4.410;2023-11-21T12:11:30;10.75;;;3.55;;
58109;SDS011;58943;50.168;4.410;2023-11-21T12:13:58;9.88;;;3.17;;
58109;SDS011;58943;50.168;4.410;2023-11-21T12:16:25;5.78;;;3.38;;
58109;SDS011;58943;50.168;4.410;2023-11-21T12:18:59;6.78;;;3.35;;
58109;SDS011;58943;50.168;4.410;2023-11-21T12:21:27;10.13;;;3.10;;
58109;SDS011;58943;50.168;4.410;2023-11-21T12:23:54;5.05;;;3.13;;
58109;SDS011;58943;50.168;4.410;2023-11-21T12:26:23;12.10;;;2.97;;
58109;SDS011;58943;50.168;4.410;2023-11-21T12:28:53;5.18;;;3.13;;
58109;SDS011;58943;50.168;4.410;2023-11-21T12:31:23;10.32;;;3.35;;
58109;SDS011;58943;50.168;4.410;2023-11-21T12:33:51;6.35;;;2.63;;
58109;SDS011;58943;50.168;4.410;2023-11-21T12:36:18;7.70;;;2.70;;
58109;SDS011;58943;50.168;4.410;2023-11-21T12:38:45;5.53;;;2.80;;
58109;SDS011;58943;50.168;4.410;2023-11-21T12:41:14;6.90;;;2.50;;
58109;SDS011;58943;50.168;4.410;2023-11-21T12:43:42;7.93;;;3.30;;
58109;SDS011;58943;50.168;4.410;2023-11-21T12:46:10;6.30;;;2.65;;
58109;SDS011;58943;50.168;4.410;2023-11-21T12:48:39;5.72;;;2.60;;
58109;SDS011;58943;50.168;4.410;2023-11-21T12:51:07;5.60;;;2.88;;
58109;SDS011;58943;50.168;4.410;2023-11-21T12:53:35;6.63;;;2.95;;
58109;SDS011;58943;50.168;4.410;2023-11-21T12:56:07;9.60;;;3.17;;
58109;SDS011;58943;50.168;4.410;2023-11-21T12:58:36;8.45;;;2.90;;
58109;SDS011;58943;50.168;4.410;2023-11-21T13:01:04;6.00;;;3.20;;
58109;SDS011;58943;50.168;4.410;2023-11-21T13:03:37;7.38;;;2.72;;
58109;SDS011;58943;50.168;4.410;2023-11-21T13:06:04;6.90;;;2.90;;
58109;SDS011;58943;50.168;4.410;2023-11-21T13:08:33;6.60;;;3.07;;
58109;SDS011;58943;50.168;4.410;2023-11-21T13:10:59;4.43;;;2.72;;
58109;SDS011;58943;50.168;4.410;2023-11-21T13:13:27;6.25;;;2.72;;
58109;SDS011;58943;50.168;4.410;2023-11-21T13:15:55;7.03;;;2.80;;
58109;SDS011;58943;50.168;4.410;2023-11-21T13:18:24;6.43;;;3.00;;
58109;SDS011;58943;50.168;4.410;2023-11-21T13:20:54;6.20;;;2.63;;
58109;SDS011;58943;50.168;4.410;2023-11-21T13:23:21;7.18;;;3.38;;
58109;SDS011;58943;50.168;4.410;2023-11-21T13:25:48;4.70;;;2.83;;
58109;SDS011;58943;50.168;4.410;2023-11-21T13:28:15;7.78;;;2.88;;
58109;SDS011;58943;50.168;4.410;2023-11-21T13:30:43;4.45;;;2.60;;
58109;SDS011;58943;50.168;4.410;2023-11-21T13:33:10;7.05;;;2.72;;
58109;SDS011;58943;50.168;4.410;2023-11-21T13:35:43;5.22;;;3.03;;
58109;SDS011;58943;50.168;4.410;2023-11-21T13:38:15;5.90;;;2.53;;
58109;SDS011;58943;50.168;4.410;2023-11-21T13:40:49;5.75;;;2.92;;
58109;SDS011;58943;50.168;4.410;2023-11-21T13:43:20;6.13;;;3.13;;
58109;SDS011;58943;50.168;4.410;2023-11-21T13:48:18;6.65;;;3.40;;
58109;SDS011;58943;50.168;4.410;2023-11-21T13:51:03;6.78;;;3.17;;
58109;SDS011;58943;50.168;4.410;2023-11-21T13:53:45;6.38;;;2.95;;
58109;SDS011;58943;50.168;4.410;2023-11-21T13:56:20;5.78;;;3.42;;
58109;SDS011;58943;50.168;4.410;2023-11-21T13:58:50;7.15;;;3.38;;
58109;SDS011;58943;50.168;4.410;2023-11-21T14:01:22;8.00;;;3.00;;
58109;SDS011;58943;50.168;4.410;2023-11-21T14:03:54;5.13;;;3.10;;
58109;SDS011;58943;50.168;4.410;2023-11-21T14:06:28;4.18;;;2.70;;
58109;SDS011;58943;50.168;4.410;2023-11-21T14:09:01;6.63;;;3.42;;
58109;SDS011;58943;50.168;4.410;2023-11-21T14:11:32;5.72;;;3.17;;
58109;SDS011;58943;50.168;4.410;2023-11-21T14:13:59;4.95;;;3.00;;
58109;SDS011;58943;50.168;4.410;2023-11-21T14:16:28;5.28;;;2.90;;
58109;SDS011;58943;50.168;4.410;2023-11-21T14:18:57;7.80;;;3.47;;
58109;SDS011;58943;50.168;4.410;2023-11-21T14:21:39;4.97;;;2.97;;
58109;SDS011;58943;50.168;4.410;2023-11-21T14:24:08;5.25;;;3.15;;
58109;SDS011;58943;50.168;4.410;2023-11-21T14:26:36;4.10;;;3.13;;
58109;SDS011;58943;50.168;4.410;2023-11-21T14:29:05;5.68;;;3.03;;
58109;SDS011;58943;50.168;4.410;2023-11-21T14:31:34;5.13;;;3.05;;
58109;SDS011;58943;50.168;4.410;2023-11-21T14:34:01;6.22;;;3.10;;
58109;SDS011;58943;50.168;4.410;2023-11-21T14:36:28;4.55;;;2.80;;
58109;SDS011;58943;50.168;4.410;2023-11-21T14:38:55;5.55;;;2.85;;
58109;SDS011;58943;50.168;4.410;2023-11-21T14:41:22;8.20;;;3.10;;
58109;SDS011;58943;50.168;4.410;2023-11-21T14:43:50;6.45;;;2.92;;
58109;SDS011;58943;50.168;4.410;2023-11-21T14:46:18;4.63;;;2.67;;
58109;SDS011;58943;50.168;4.410;2023-11-21T14:48:45;5.60;;;2.75;;
58109;SDS011;58943;50.168;4.410;2023-11-21T14:51:25;5.57;;;2.75;;
58109;SDS011;58943;50.168;4.410;2023-11-21T14:54:11;5.35;;;3.22;;
58109;SDS011;58943;50.168;4.410;2023-11-21T14:56:37;4.57;;;3.08;;
58109;SDS011;58943;50.168;4.410;2023-11-21T14:59:04;7.30;;;3.00;;
58109;SDS011;58943;50.168;4.410;2023-11-21T15:01:41;3.70;;;2.97;;
58109;SDS011;58943;50.168;4.410;2023-11-21T15:04:11;5.40;;;2.67;;
58109;SDS011;58943;50.168;4.410;2023-11-21T15:06:49;5.53;;;2.78;;
58109;SDS011;58943;50.168;4.410;2023-11-21T15:09:18;4.05;;;2.67;;
58109;SDS011;58943;50.168;4.410;2023-11-21T15:12:00;3.90;;;2.38;;